sensor_id;sensor_type;location;lat;lon;timestamp;pressure;altitude;pressure_sealevel;temperature;humidity
61109;BME280;46995;55.740;37.402;2023-05-09T00:00:05;101057.97;;;2.18;64.59
61109;BME280;46995;55.740;37.402;2023-05-09T00:02:32;101057.94;;;2.20;64.42
61109;BME280;46995;55.740;37.402;2023-05-09T00:04:59;101072.50;;;2.27;64.20
61109;BME280;46995;55.740;37.402;2023-05-09T00:07:29;101054.56;;;2.16;64.62
61109;BME280;46995;55.740;37.402;2023-05-09T00:09:55;101071.75;;;2.23;64.73
61109;BME280;46995;55.740;37.402;2023-05-09T00:12:21;101061.47;;;2.17;64.39
61109;BME280;46995;55.740;37.402;2023-05-09T00:14:48;101053.03;;;2.09;64.56
61109;BME280;46995;55.740;37.402;2023-05-09T00:17:16;101059.94;;;2.10;64.51
61109;BME280;46995;55.740;37.402;2023-05-09T00:19:43;101077.03;;;2.20;64.22
61109;BME280;46995;55.740;37.402;2023-05-09T00:22:09;101077.97;;;2.18;64.20
61109;BME280;46995;55.740;37.402;2023-05-09T00:24:37;101069.50;;;2.09;63.84
61109;BME280;46995;55.740;37.402;2023-05-09T00:27:03;101073.69;;;2.15;63.83
61109;BME280;46995;55.740;37.402;2023-05-09T00:29:30;101075.56;;;2.10;63.63
61109;BME280;46995;55.740;37.402;2023-05-09T00:31:56;101077.28;;;2.11;63.53
61109;BME280;46995;55.740;37.402;2023-05-09T00:34:21;101072.16;;;2.08;63.68
61109;BME280;46995;55.740;37.402;2023-05-09T00:36:47;101073.06;;;2.07;63.63
61109;BME280;46995;55.740;37.402;2023-05-09T00:39:14;101060.34;;;1.95;63.63
61109;BME280;46995;55.740;37.402;2023-05-09T00:41:40;101073.25;;;1.99;63.56
61109;BME280;46995;55.740;37.402;2023-05-09T00:44:05;101087.19;;;1.98;63.46
61109;BME280;46995;55.740;37.402;2023-05-09T00:46:32;101062.31;;;1.87;63.92
61109;BME280;46995;55.740;37.402;2023-05-09T00:48:58;101076.06;;;1.92;63.67
61109;BME280;46995;55.740;37.402;2023-05-09T00:51:24;101071.88;;;1.85;63.88
61109;BME280;46995;55.740;37.402;2023-05-09T00:53:50;101049.81;;;1.65;63.83
61109;BME280;46995;55.740;37.402;2023-05-09T00:56:16;101084.16;;;1.81;63.99
61109;BME280;46995;55.740;37.402;2023-05-09T00:58:41;101081.59;;;1.78;64.26
61109;BME280;46995;55.740;37.402;2023-05-09T01:01:08;101080.81;;;1.76;64.56
61109;BME280;46995;55.740;37.402;2023-05-09T01:03:34;101060.38;;;1.61;64.61
61109;BME280;46995;55.740;37.402;2023-05-09T01:06:02;101081.78;;;1.72;65.24
61109;BME280;46995;55.740;37.402;2023-05-09T01:08:43;101080.94;;;1.72;65.56
61109;BME280;46995;55.740;37.402;2023-05-09T01:19:57;101065.69;;;1.56;65.96
61109;BME280;46995;55.740;37.402;2023-05-09T01:22:29;101081.88;;;1.67;65.93
61109;BME280;46995;55.740;37.402;2023-05-09T01:27:38;101064.22;;;1.46;65.90
61109;BME280;46995;55.740;37.402;2023-05-09T01:30:10;101080.34;;;1.60;65.68
61109;BME280;46995;55.740;37.402;2023-05-09T01:32:36;101081.09;;;1.64;65.25
61109;BME280;46995;55.740;37.402;2023-05-09T01:35:04;101087.25;;;1.61;65.61
61109;BME280;46995;55.740;37.402;2023-05-09T01:37:33;101087.31;;;1.58;65.52
61109;BME280;46995;55.740;37.402;2023-05-09T01:40:10;101071.16;;;1.46;65.50
61109;BME280;46995;55.740;37.402;2023-05-09T01:42:47;101085.72;;;1.53;65.47
61109;BME280;46995;55.740;37.402;2023-05-09T01:45:15;101074.63;;;1.46;65.70
61109;BME280;46995;55.740;37.402;2023-05-09T01:47:42;101087.47;;;1.52;65.25
61109;BME280;46995;55.740;37.402;2023-05-09T01:50:10;101085.72;;;1.53;65.47
61109;BME280;46995;55.740;37.402;2023-05-09T01:52:37;101067.81;;;1.41;65.25
61109;BME280;46995;55.740;37.402;2023-05-09T01:55:05;101081.50;;;1.47;65.67
61109;BME280;46995;55.740;37.402;2023-05-09T01:57:31;101082.19;;;1.55;65.25
61109;BME280;46995;55.740;37.402;2023-05-09T01:59:58;101085.69;;;1.54;65.52
61109;BME280;46995;55.740;37.402;2023-05-09T02:02:26;101081.38;;;1.52;65.26
61109;BME280;46995;55.740;37.402;2023-05-09T02:04:56;101082.31;;;1.51;65.67
61109;BME280;46995;55.740;37.402;2023-05-09T02:07:24;101063.50;;;1.40;65.64
61109;BME280;46995;55.740;37.402;2023-05-09T02:09:54;101082.25;;;1.52;65.65
61109;BME280;46995;55.740;37.402;2023-05-09T02:12:23;101051.47;;;1.34;65.64
61109;BME280;46995;55.740;37.402;2023-05-09T02:14:49;101053.97;;;1.39;65.65
61109;BME280;46995;55.740;37.402;2023-05-09T02:17:15;101060.88;;;1.41;65.75
61109;BME280;46995;55.740;37.402;2023-05-09T02:19:42;101089.03;;;1.59;65.81
61109;BME280;46995;55.740;37.402;2023-05-09T02:22:28;101067.50;;;1.53;65.78
61109;BME280;46995;55.740;37.402;2023-05-09T02:24:54;101081.19;;;1.61;65.72
61109;BME280;46995;55.740;37.402;2023-05-09T02:27:20;101094.00;;;1.68;65.92
61109;BME280;46995;55.740;37.402;2023-05-09T02:29:50;101085.44;;;1.63;65.95
61109;BME280;46995;55.740;37.402;2023-05-09T02:32:24;101093.94;;;1.72;65.92
61109;BME280;46995;55.740;37.402;2023-05-09T02:34:53;101090.50;;;1.69;65.54
61109;BME280;46995;55.740;37.402;2023-05-09T02:37:20;101093.84;;;1.75;65.69
61109;BME280;46995;55.740;37.402;2023-05-09T02:39:46;101095.66;;;1.73;65.59
61109;BME280;46995;55.740;37.402;2023-05-09T02:42:17;101087.50;;;1.86;66.13
61109;BME280;46995;55.740;37.402;2023-05-09T02:44:42;101080.66;;;1.82;65.89
61109;BME280;46995;55.740;37.402;2023-05-09T02:47:08;101090.66;;;1.99;65.86
61109;BME280;46995;55.740;37.402;2023-05-09T02:49:34;101079.41;;;1.97;65.65
61109;BME280;46995;55.740;37.402;2023-05-09T02:52:02;101092.13;;;2.09;65.24
61109;BME280;46995;55.740;37.402;2023-05-09T02:54:28;101084.31;;;2.07;65.25
61109;BME280;46995;55.740;37.402;2023-05-09T02:56:54;101099.59;;;2.21;65.47
61109;BME280;46995;55.740;37.402;2023-05-09T02:59:20;101104.63;;;2.27;65.61
61109;BME280;46995;55.740;37.402;2023-05-09T03:01:45;101089.97;;;2.23;65.42
61109;BME280;46995;55.740;37.402;2023-05-09T03:04:11;101100.88;;;2.37;65.12
61109;BME280;46995;55.740;37.402;2023-05-09T03:06:37;101095.50;;;2.43;65.13
61109;BME280;46995;55.740;37.402;2023-05-09T03:09:03;101096.22;;;2.48;64.64
61109;BME280;46995;55.740;37.402;2023-05-09T03:11:31;101095.16;;;2.55;64.73
61109;BME280;46995;55.740;37.402;2023-05-09T03:13:56;101101.72;;;2.69;64.47
61109;BME280;46995;55.740;37.402;2023-05-09T03:16:22;101103.28;;;2.76;64.50
61109;BME280;46995;55.740;37.402;2023-05-09T03:18:49;101096.06;;;2.84;64.05
61109;BME280;46995;55.740;37.402;2023-05-09T03:21:15;101099.16;;;2.98;63.96
61109;BME280;46995;55.740;37.402;2023-05-09T03:23:41;101109.13;;;3.13;64.12
61109;BME280;46995;55.740;37.402;2023-05-09T03:26:07;101098.75;;;3.10;64.07
61109;BME280;46995;55.740;37.402;2023-05-09T03:28:33;101108.72;;;3.25;63.65
61109;BME280;46995;55.740;37.402;2023-05-09T03:31:03;101103.13;;;3.37;63.90
61109;BME280;46995;55.740;37.402;2023-05-09T03:33:29;101107.97;;;3.50;63.78
61109;BME280;46995;55.740;37.402;2023-05-09T03:35:56;101102.44;;;3.59;64.10
61109;BME280;46995;55.740;37.402;2023-05-09T03:38:22;101108.19;;;3.70;63.32
61109;BME280;46995;55.740;37.402;2023-05-09T03:40:49;101110.44;;;3.80;63.30
61109;BME280;46995;55.740;37.402;2023-05-09T03:43:16;101116.22;;;3.90;63.55
61109;BME280;46995;55.740;37.402;2023-05-09T03:45:42;101107.47;;;3.91;63.58
61109;BME280;46995;55.740;37.402;2023-05-09T03:48:10;101100.00;;;4.05;63.27
61109;BME280;46995;55.740;37.402;2023-05-09T03:50:41;101116.84;;;4.23;62.84
61109;BME280;46995;55.740;37.402;2023-05-09T03:53:08;101116.56;;;4.31;62.91
61109;BME280;46995;55.740;37.402;2023-05-09T03:55:35;101115.22;;;4.44;60.90
61109;BME280;46995;55.740;37.402;2023-05-09T03:58:02;101113.91;;;4.55;61.45
61109;BME280;46995;55.740;37.402;2023-05-09T04:00:29;101099.06;;;4.56;59.14
61109;BME280;46995;55.740;37.402;2023-05-09T04:03:04;101117.41;;;4.79;59.02
61109;BME280;46995;55.740;37.402;2023-05-09T04:05:36;101100.59;;;4.86;59.00
61109;BME280;46995;55.740;37.402;2023-05-09T04:08:04;101113.81;;;5.05;59.01
61109;BME280;46995;55.740;37.402;2023-05-09T04:10:30;101102.25;;;5.10;58.03
61109;BME280;46995;55.740;37.402;2023-05-09T04:12:57;101107.88;;;5.23;57.56
61109;BME280;46995;55.740;37.402;2023-05-09T04:15:23;101114.19;;;5.39;56.94
61109;BME280;46995;55.740;37.402;2023-05-09T04:17:49;101102.34;;;5.52;55.32
61109;BME280;46995;55.740;37.402;2023-05-09T04:20:15;101113.00;;;5.70;54.12
61109;BME280;46995;55.740;37.402;2023-05-09T04:22:42;101104.59;;;5.82;53.77
61109;BME280;46995;55.740;37.402;2023-05-09T04:25:08;101099.50;;;6.01;53.04
61109;BME280;46995;55.740;37.402;2023-05-09T04:27:37;101116.69;;;6.28;51.48
61109;BME280;46995;55.740;37.402;2023-05-09T04:30:04;101119.41;;;6.45;50.06
61109;BME280;46995;55.740;37.402;2023-05-09T04:32:30;101109.34;;;6.55;49.62
61109;BME280;46995;55.740;37.402;2023-05-09T04:34:57;101118.06;;;6.75;49.71
61109;BME280;46995;55.740;37.402;2023-05-09T04:37:28;101122.06;;;6.84;49.63
61109;BME280;46995;55.740;37.402;2023-05-09T04:39:55;101106.50;;;6.79;49.28
61109;BME280;46995;55.740;37.402;2023-05-09T04:42:27;101117.72;;;7.02;47.43
61109;BME280;46995;55.740;37.402;2023-05-09T04:44:52;101120.84;;;7.10;47.83
61109;BME280;46995;55.740;37.402;2023-05-09T04:47:20;101120.47;;;7.17;47.54
61109;BME280;46995;55.740;37.402;2023-05-09T04:49:46;101111.19;;;7.29;46.15
61109;BME280;46995;55.740;37.402;2023-05-09T04:52:11;101111.53;;;7.40;46.23
61109;BME280;46995;55.740;37.402;2023-05-09T04:54:39;101103.47;;;7.43;45.42
61109;BME280;46995;55.740;37.402;2023-05-09T04:57:05;101122.72;;;7.62;44.27
61109;BME280;46995;55.740;37.402;2023-05-09T04:59:34;101116.16;;;7.71;44.18
61109;BME280;46995;55.740;37.402;2023-05-09T05:02:00;101113.28;;;7.76;44.56
61109;BME280;46995;55.740;37.402;2023-05-09T05:04:26;101106.44;;;7.73;44.72
61109;BME280;46995;55.740;37.402;2023-05-09T05:06:53;101114.72;;;7.83;44.81
61109;BME280;46995;55.740;37.402;2023-05-09T05:09:19;101110.31;;;7.83;44.62
61109;BME280;46995;55.740;37.402;2023-05-09T05:11:45;101114.72;;;8.00;43.92
61109;BME280;46995;55.740;37.402;2023-05-09T05:14:11;101113.34;;;8.10;43.81
61109;BME280;46995;55.740;37.402;2023-05-09T05:16:37;101105.28;;;8.13;43.60
61109;BME280;46995;55.740;37.402;2023-05-09T05:19:03;101109.19;;;8.22;43.73
61109;BME280;46995;55.740;37.402;2023-05-09T05:21:31;101113.19;;;8.30;43.60
61109;BME280;46995;55.740;37.402;2023-05-09T05:23:57;101078.22;;;8.11;43.93
61109;BME280;46995;55.740;37.402;2023-05-09T05:26:23;101117.66;;;8.45;42.96
61109;BME280;46995;55.740;37.402;2023-05-09T05:28:50;101090.88;;;8.37;42.59
61109;BME280;46995;55.740;37.402;2023-05-09T05:31:20;101129.97;;;8.62;42.07
61109;BME280;46995;55.740;37.402;2023-05-09T05:33:46;101109.63;;;8.64;42.33
61109;BME280;46995;55.740;37.402;2023-05-09T05:36:12;101108.78;;;8.64;42.27
61109;BME280;46995;55.740;37.402;2023-05-09T05:38:38;101118.69;;;8.76;42.17
61109;BME280;46995;55.740;37.402;2023-05-09T05:41:04;101110.38;;;8.83;41.71
61109;BME280;46995;55.740;37.402;2023-05-09T05:43:30;101096.97;;;8.88;41.41
61109;BME280;46995;55.740;37.402;2023-05-09T05:45:56;101115.69;;;8.99;40.98
61109;BME280;46995;55.740;37.402;2023-05-09T05:48:23;101103.94;;;9.05;40.40
61109;BME280;46995;55.740;37.402;2023-05-09T05:50:51;101090.84;;;9.03;41.16
61109;BME280;46995;55.740;37.402;2023-05-09T05:53:21;101063.13;;;8.96;41.13
61109;BME280;46995;55.740;37.402;2023-05-09T05:55:49;101089.22;;;9.16;40.62
61109;BME280;46995;55.740;37.402;2023-05-09T05:58:15;101104.97;;;9.33;39.54
61109;BME280;46995;55.740;37.402;2023-05-09T06:00:41;101072.75;;;9.28;39.94
61109;BME280;46995;55.740;37.402;2023-05-09T06:03:07;101072.13;;;9.39;39.21
61109;BME280;46995;55.740;37.402;2023-05-09T06:05:59;101096.44;;;9.60;39.20
61109;BME280;46995;55.740;37.402;2023-05-09T06:08:25;101095.59;;;9.59;39.32
61109;BME280;46995;55.740;37.402;2023-05-09T06:10:51;101082.13;;;9.64;38.04
61109;BME280;46995;55.740;37.402;2023-05-09T06:13:18;101078.56;;;9.65;38.21
61109;BME280;46995;55.740;37.402;2023-05-09T06:15:49;101078.56;;;9.65;37.88
61109;BME280;46995;55.740;37.402;2023-05-09T06:18:15;101091.97;;;9.76;38.59
61109;BME280;46995;55.740;37.402;2023-05-09T06:20:40;101081.16;;;9.81;38.05
61109;BME280;46995;55.740;37.402;2023-05-09T06:23:06;101076.09;;;9.92;37.55
61109;BME280;46995;55.740;37.402;2023-05-09T06:25:32;101084.53;;;9.98;37.06
61109;BME280;46995;55.740;37.402;2023-05-09T06:27:58;101074.91;;;9.97;36.75
61109;BME280;46995;55.740;37.402;2023-05-09T06:30:24;101066.06;;;9.98;37.31
61109;BME280;46995;55.740;37.402;2023-05-09T06:32:50;101068.41;;;10.03;37.31
61109;BME280;46995;55.740;37.402;2023-05-09T06:35:15;101078.41;;;10.12;35.98
61109;BME280;46995;55.740;37.402;2023-05-09T06:37:41;101069.66;;;10.11;36.64
61109;BME280;46995;55.740;37.402;2023-05-09T06:40:07;101054.09;;;10.07;36.33
61109;BME280;46995;55.740;37.402;2023-05-09T06:42:39;101059.59;;;10.18;36.45
61109;BME280;46995;55.740;37.402;2023-05-09T06:45:05;101049.91;;;10.18;36.12
61109;BME280;46995;55.740;37.402;2023-05-09T06:47:31;101045.09;;;10.25;36.14
61109;BME280;46995;55.740;37.402;2023-05-09T06:49:56;101067.56;;;10.46;36.13
61109;BME280;46995;55.740;37.402;2023-05-09T06:52:22;101045.59;;;10.46;36.56
61109;BME280;46995;55.740;37.402;2023-05-09T06:54:48;101064.94;;;10.60;36.94
61109;BME280;46995;55.740;37.402;2023-05-09T06:57:14;101060.97;;;10.68;35.92
61109;BME280;46995;55.740;37.402;2023-05-09T06:59:39;101055.00;;;10.64;34.86
61109;BME280;46995;55.740;37.402;2023-05-09T07:02:06;101052.94;;;10.69;34.88
61109;BME280;46995;55.740;37.402;2023-05-09T07:04:31;101051.59;;;10.76;34.64
61109;BME280;46995;55.740;37.402;2023-05-09T07:06:57;101041.97;;;10.75;35.47
61109;BME280;46995;55.740;37.402;2023-05-09T07:09:26;101050.09;;;10.86;35.00
61109;BME280;46995;55.740;37.402;2023-05-09T07:11:55;101046.94;;;10.94;34.98
61109;BME280;46995;55.740;37.402;2023-05-09T07:14:21;101026.84;;;10.91;33.75
61109;BME280;46995;55.740;37.402;2023-05-09T07:16:51;101028.34;;;10.95;33.47
61109;BME280;46995;55.740;37.402;2023-05-09T07:19:17;101028.34;;;10.95;34.33
61109;BME280;46995;55.740;37.402;2023-05-09T07:21:55;101010.41;;;11.00;33.82
61109;BME280;46995;55.740;37.402;2023-05-09T07:24:20;101021.28;;;11.23;34.09
61109;BME280;46995;55.740;37.402;2023-05-09T07:26:46;101016.50;;;11.42;33.63
61109;BME280;46995;55.740;37.402;2023-05-09T07:29:17;101029.78;;;11.67;33.59
61109;BME280;46995;55.740;37.402;2023-05-09T07:31:45;101025.19;;;11.83;32.97
61109;BME280;46995;55.740;37.402;2023-05-09T07:34:11;101025.44;;;11.93;33.16
61109;BME280;46995;55.740;37.402;2023-05-09T07:36:38;100981.00;;;11.71;32.52
61109;BME280;46995;55.740;37.402;2023-05-09T07:42:50;100993.97;;;12.01;32.92
61109;BME280;46995;55.740;37.402;2023-05-09T07:45:17;101008.63;;;12.19;32.52
61109;BME280;46995;55.740;37.402;2023-05-09T07:47:43;100999.16;;;12.28;32.54
61109;BME280;46995;55.740;37.402;2023-05-09T07:50:09;100998.00;;;12.32;31.79
61109;BME280;46995;55.740;37.402;2023-05-09T07:52:36;101010.06;;;12.49;32.04
61109;BME280;46995;55.740;37.402;2023-05-09T07:55:02;100993.31;;;12.48;30.71
61109;BME280;46995;55.740;37.402;2023-05-09T07:57:29;100998.91;;;12.56;30.97
61109;BME280;46995;55.740;37.402;2023-05-09T07:59:55;100994.97;;;12.74;30.89
61109;BME280;46995;55.740;37.402;2023-05-09T08:02:21;100997.88;;;12.95;30.90
61109;BME280;46995;55.740;37.402;2023-05-09T08:04:46;100984.44;;;13.09;30.96
61109;BME280;46995;55.740;37.402;2023-05-09T08:07:13;100948.84;;;13.01;30.23
61109;BME280;46995;55.740;37.402;2023-05-09T08:09:39;100980.41;;;13.40;30.29
61109;BME280;46995;55.740;37.402;2023-05-09T08:12:06;100974.47;;;13.61;31.17
61109;BME280;46995;55.740;37.402;2023-05-09T08:14:37;100961.84;;;13.51;30.18
61109;BME280;46995;55.740;37.402;2023-05-09T08:17:02;100968.91;;;13.64;30.14
61109;BME280;46995;55.740;37.402;2023-05-09T08:19:28;100970.97;;;13.71;29.67
61109;BME280;46995;55.740;37.402;2023-05-09T08:21:54;100979.06;;;13.70;29.36
61109;BME280;46995;55.740;37.402;2023-05-09T08:24:20;100969.66;;;13.66;29.02
61109;BME280;46995;55.740;37.402;2023-05-09T08:26:46;100908.00;;;13.27;29.11
61109;BME280;46995;55.740;37.402;2023-05-09T08:29:15;100961.84;;;13.51;28.37
61109;BME280;46995;55.740;37.402;2023-05-09T08:31:54;100957.50;;;13.39;29.59
61109;BME280;46995;55.740;37.402;2023-05-09T08:34:20;100949.19;;;13.20;29.69
61109;BME280;46995;55.740;37.402;2023-05-09T08:36:46;100882.16;;;12.70;30.09
61109;BME280;46995;55.740;37.402;2023-05-09T08:39:12;100947.75;;;13.03;30.30
61109;BME280;46995;55.740;37.402;2023-05-09T08:41:38;100931.91;;;12.91;29.98
61109;BME280;46995;55.740;37.402;2023-05-09T08:44:04;100951.59;;;13.12;29.78
61109;BME280;46995;55.740;37.402;2023-05-09T08:46:36;100934.28;;;13.30;29.64
61109;BME280;46995;55.740;37.402;2023-05-09T08:49:04;100910.41;;;13.30;29.10
61109;BME280;46995;55.740;37.402;2023-05-09T08:51:34;100930.50;;;13.56;28.80
61109;BME280;46995;55.740;37.402;2023-05-09T08:54:00;100940.78;;;13.72;30.50
61109;BME280;46995;55.740;37.402;2023-05-09T08:56:28;100937.13;;;13.51;29.15
61109;BME280;46995;55.740;37.402;2023-05-09T08:58:54;100940.03;;;13.48;29.11
61109;BME280;46995;55.740;37.402;2023-05-09T09:01:21;100933.00;;;13.47;29.01
61109;BME280;46995;55.740;37.402;2023-05-09T09:03:47;100922.19;;;13.50;28.98
61109;BME280;46995;55.740;37.402;2023-05-09T09:06:17;100935.84;;;13.68;28.03
61109;BME280;46995;55.740;37.402;2023-05-09T09:08:44;100935.13;;;13.66;27.62
61109;BME280;46995;55.740;37.402;2023-05-09T09:11:15;100918.44;;;13.52;28.00
61109;BME280;46995;55.740;37.402;2023-05-09T09:13:43;100923.88;;;13.62;28.04
61109;BME280;46995;55.740;37.402;2023-05-09T09:16:17;100894.69;;;13.62;27.12
61109;BME280;46995;55.740;37.402;2023-05-09T09:18:51;100914.41;;;14.04;27.66
61109;BME280;46995;55.740;37.402;2023-05-09T09:21:18;100909.34;;;14.46;28.15
61109;BME280;46995;55.740;37.402;2023-05-09T09:23:45;100911.66;;;14.82;26.61
61109;BME280;46995;55.740;37.402;2023-05-09T09:26:14;100910.19;;;15.00;26.98
61109;BME280;46995;55.740;37.402;2023-05-09T09:28:41;100910.41;;;14.97;26.75
61109;BME280;46995;55.740;37.402;2023-05-09T09:31:20;100910.59;;;14.84;26.83
61109;BME280;46995;55.740;37.402;2023-05-09T09:33:49;100889.25;;;14.64;27.72
61109;BME280;46995;55.740;37.402;2023-05-09T09:36:21;100866.81;;;14.46;28.19
61109;BME280;46995;55.740;37.402;2023-05-09T09:38:55;100907.25;;;14.60;27.47
61109;BME280;46995;55.740;37.402;2023-05-09T09:41:29;100897.00;;;14.45;27.46
61109;BME280;46995;55.740;37.402;2023-05-09T09:44:06;100899.19;;;14.39;27.41
61109;BME280;46995;55.740;37.402;2023-05-09T09:46:51;100900.16;;;14.27;27.30
61109;BME280;46995;55.740;37.402;2023-05-09T09:49:24;100890.50;;;14.04;27.64
61109;BME280;46995;55.740;37.402;2023-05-09T09:51:55;100891.97;;;13.97;28.02
61109;BME280;46995;55.740;37.402;2023-05-09T09:54:43;100894.84;;;13.94;27.38
61109;BME280;46995;55.740;37.402;2023-05-09T09:57:08;100880.34;;;13.65;27.36
61109;BME280;46995;55.740;37.402;2023-05-09T09:59:34;100911.56;;;13.50;27.41
61109;BME280;46995;55.740;37.402;2023-05-09T10:02:04;100895.19;;;13.21;27.80
61109;BME280;46995;55.740;37.402;2023-05-09T10:04:33;100902.91;;;13.24;27.79
61109;BME280;46995;55.740;37.402;2023-05-09T10:07:02;100891.22;;;13.27;28.48
61109;BME280;46995;55.740;37.402;2023-05-09T10:09:34;100889.22;;;13.41;28.83
61109;BME280;46995;55.740;37.402;2023-05-09T10:12:04;100873.41;;;13.51;29.24
61109;BME280;46995;55.740;37.402;2023-05-09T10:14:33;100871.66;;;13.74;27.97
61109;BME280;46995;55.740;37.402;2023-05-09T10:17:02;100889.28;;;14.08;27.09
61109;BME280;46995;55.740;37.402;2023-05-09T10:19:29;100864.28;;;14.22;27.72
61109;BME280;46995;55.740;37.402;2023-05-09T10:21:57;100862.81;;;14.40;27.20
61109;BME280;46995;55.740;37.402;2023-05-09T10:27:02;100857.38;;;14.53;26.00
61109;BME280;46995;55.740;37.402;2023-05-09T10:29:43;100859.25;;;14.73;26.06
61109;BME280;46995;55.740;37.402;2023-05-09T10:32:26;100856.69;;;15.03;26.40
61109;BME280;46995;55.740;37.402;2023-05-09T10:34:57;100861.97;;;15.35;26.58
61109;BME280;46995;55.740;37.402;2023-05-09T10:37:26;100856.72;;;15.45;26.98
61109;BME280;46995;55.740;37.402;2023-05-09T10:39:53;100859.53;;;15.43;25.86
61109;BME280;46995;55.740;37.402;2023-05-09T10:42:21;100863.84;;;15.23;26.42
61109;BME280;46995;55.740;37.402;2023-05-09T10:44:54;100865.66;;;15.02;26.96
61109;BME280;46995;55.740;37.402;2023-05-09T10:47:21;100854.91;;;14.61;26.92
61109;BME280;46995;55.740;37.402;2023-05-09T10:49:48;100842.19;;;14.21;26.66
61109;BME280;46995;55.740;37.402;2023-05-09T10:52:14;100855.59;;;14.20;27.78
61109;BME280;46995;55.740;37.402;2023-05-09T10:54:57;100864.56;;;13.96;27.81
61109;BME280;46995;55.740;37.402;2023-05-09T10:57:23;100840.38;;;13.66;27.55
61109;BME280;46995;55.740;37.402;2023-05-09T10:59:50;100851.13;;;13.53;27.80
61109;BME280;46995;55.740;37.402;2023-05-09T11:02:19;100838.75;;;13.30;28.37
61109;BME280;46995;55.740;37.402;2023-05-09T11:04:45;100824.69;;;13.06;28.04
61109;BME280;46995;55.740;37.402;2023-05-09T11:07:23;100841.88;;;13.13;28.47
61109;BME280;46995;55.740;37.402;2023-05-09T11:10:16;100842.88;;;13.23;28.15
61109;BME280;46995;55.740;37.402;2023-05-09T11:12:56;100825.31;;;13.44;28.40
61109;BME280;46995;55.740;37.402;2023-05-09T11:15:25;100811.78;;;13.58;28.19
61109;BME280;46995;55.740;37.402;2023-05-09T11:18:09;100811.53;;;13.84;28.42
61109;BME280;46995;55.740;37.402;2023-05-09T11:20:43;100788.38;;;13.75;28.22
61109;BME280;46995;55.740;37.402;2023-05-09T11:23:10;100796.56;;;13.72;28.14
61109;BME280;46995;55.740;37.402;2023-05-09T11:25:40;100799.72;;;13.77;28.39
61109;BME280;46995;55.740;37.402;2023-05-09T11:28:25;100802.13;;;13.91;27.94
61109;BME280;46995;55.740;37.402;2023-05-09T11:30:52;100803.31;;;14.09;28.41
61109;BME280;46995;55.740;37.402;2023-05-09T11:33:28;100771.91;;;14.03;27.33
61109;BME280;46995;55.740;37.402;2023-05-09T11:39:06;100781.72;;;14.03;27.45
61109;BME280;46995;55.740;37.402;2023-05-09T11:41:44;100772.56;;;13.95;27.50
61109;BME280;46995;55.740;37.402;2023-05-09T11:44:19;100773.13;;;13.99;27.38
61109;BME280;46995;55.740;37.402;2023-05-09T11:46:47;100776.69;;;14.31;27.40
61109;BME280;46995;55.740;37.402;2023-05-09T11:49:13;100772.16;;;14.65;27.54
61109;BME280;46995;55.740;37.402;2023-05-09T11:51:40;100770.88;;;15.01;26.53
61109;BME280;46995;55.740;37.402;2023-05-09T11:54:07;100749.88;;;15.08;26.00
61109;BME280;46995;55.740;37.402;2023-05-09T11:56:39;100751.09;;;15.24;25.64
61109;BME280;46995;55.740;37.402;2023-05-09T11:59:08;100784.41;;;15.49;26.05
61109;BME280;46995;55.740;37.402;2023-05-09T12:01:38;100787.31;;;15.37;26.33
61109;BME280;46995;55.740;37.402;2023-05-09T12:04:05;100787.06;;;14.98;25.39
61109;BME280;46995;55.740;37.402;2023-05-09T12:06:33;100773.28;;;14.52;26.30
61109;BME280;46995;55.740;37.402;2023-05-09T12:09:01;100785.41;;;14.33;26.76
61109;BME280;46995;55.740;37.402;2023-05-09T12:11:30;100783.72;;;14.21;27.32
61109;BME280;46995;55.740;37.402;2023-05-09T12:13:56;100774.94;;;14.84;26.36
61109;BME280;46995;55.740;37.402;2023-05-09T12:16:22;100768.91;;;16.82;24.84
61109;BME280;46995;55.740;37.402;2023-05-09T12:18:49;100756.38;;;19.27;22.58
61109;BME280;46995;55.740;37.402;2023-05-09T12:21:19;100708.91;;;20.38;21.36
61109;BME280;46995;55.740;37.402;2023-05-09T12:23:46;100749.81;;;21.92;20.66
61109;BME280;46995;55.740;37.402;2023-05-09T12:26:12;100740.28;;;22.43;20.02
61109;BME280;46995;55.740;37.402;2023-05-09T12:28:39;100712.09;;;22.08;19.29
61109;BME280;46995;55.740;37.402;2023-05-09T12:31:06;100698.22;;;21.49;20.04
61109;BME280;46995;55.740;37.402;2023-05-09T12:33:32;100722.16;;;21.20;19.95
61109;BME280;46995;55.740;37.402;2023-05-09T12:36:09;100700.00;;;20.29;20.61
61109;BME280;46995;55.740;37.402;2023-05-09T12:38:39;100680.50;;;19.53;20.98
61109;BME280;46995;55.740;37.402;2023-05-09T12:41:44;100649.34;;;18.23;21.33
61109;BME280;46995;55.740;37.402;2023-05-09T12:44:21;100730.56;;;17.76;21.71
61109;BME280;46995;55.740;37.402;2023-05-09T12:47:19;100725.09;;;16.94;23.13
61109;BME280;46995;55.740;37.402;2023-05-09T12:49:48;100687.19;;;16.24;23.41
61109;BME280;46995;55.740;37.402;2023-05-09T12:52:19;100669.81;;;16.00;24.60
61109;BME280;46995;55.740;37.402;2023-05-09T12:54:45;100676.66;;;15.93;23.75
61109;BME280;46995;55.740;37.402;2023-05-09T12:57:22;100676.13;;;16.09;23.44
61109;BME280;46995;55.740;37.402;2023-05-09T12:59:57;100658.88;;;16.03;23.31
61109;BME280;46995;55.740;37.402;2023-05-09T13:02:25;100704.47;;;16.39;22.87
61109;BME280;46995;55.740;37.402;2023-05-09T13:05:08;100661.34;;;15.76;23.47
61109;BME280;46995;55.740;37.402;2023-05-09T13:07:47;100643.13;;;15.32;23.37
61109;BME280;46995;55.740;37.402;2023-05-09T13:10:23;100653.38;;;14.96;25.00
61109;BME280;46995;55.740;37.402;2023-05-09T13:12:51;100664.53;;;14.90;25.06